Timeline UpdatesTrip UpdatesNews PostsPvt Posts♥♥Travel TipsAdmin PostsConv PostsFollowed PostsChat RequestsBlog PostsPNR Posts

Disclaimer
Search
 
 
Sun Dec 21, 2014 08:07:55 ISTHomeTrainsΣChainsAtlasPNRForumGalleryNewsFAQTripsMembersLoginFeedback
No Recent News for this Train
Other Trains in the News **new
Latest...
.
Wed Nov 20, 2013 (01:29PM)
⇐ Return Journey: Train# 11078

11077/Jhelum Express

Time-Table HAS CHANGED.
Sep 02 2014 (12:00AM)
Change Departure Station:
Change Arrival Station:
Post a Train Travel TipPost a Train Travel Tip **new
Post a Comment/Question/Picture/VideoPost a Comment/Question/Picture/Video
Inaugural Run
Sat Jan 01, 1977
Pantry/Catering
✓ Pantry Car Avbl
✓ Catering Avbl
Loco/Rake Reversals
DD/Daund Junction (7);
RSA - Rake Sharing
No RSA.
Rake/Coach Composition
From Pune-Daund Jn-->Loco, LDS, UR, A1, A2, B1, B2, B3, B4, B5, S1, PC, S2, S3 TO S10, UR, UR, MLTY; Daund Jn To Jammu Tawi--> Loco MLTY ,UR ,UR ,S10 To S2 ,PC ,S1,B5 -B1 ,A2 ,A1 ,UR ,LDS(DD-JAT)
Loco
PUNE-MMR: PUNE WDP-4D MMR-LDH : GZB/LDH WAP4 LDH -JAT :...
Read more...
LDH WDM3A (Single/Twins)
News    PNR    Forum    Time-Table    Availability    Fare Chart    Map    Arr/Dep History    Trips    Gallery    ΣChains    X/O    Timeline    
Travel Time: 1h 36m    0 halts    Distance: 113 km    Avg Speed: 70 km/hr
Type: Mail/Express
Zone: CR/Central
Departs @ 18:05 (Avg 1h 46m late)
Platform# 3
SMTWTFS
Mathura Junction/MTJ 
Arrives @ 19:41 (Avg 1h 39m late)
Platform# 2
SMTWTFS
Faridabad/FDB 

0 halts. 14 intermediate Stations between Mathura Junction and Faridabad

Show ALL intermediate Stations  Show Old Time-Table

#TrkCodeStation NameX/OArrivesAvgDepartsAvgHaltPFDay#KmSpeedElevZoneAddress
1/==/PUNEPune Junction (6)  -17:20+211-1457.666556mCRPune 411001, Maharashtra
2/==/URIUruli (2)  17:46+817:47+81m21-1428.858553mCRDist. Pune 412202, Maharashtra
3%==%DDDaund Junction (7)X18:35+418:50+2115m51-1382.055521mCRNew Daund Dist. Pune 413801, Maharashtra
4/--/ANGAhmadnagar (2)  20:22+1420:25+153m11-1297.868650mCRAhmednagar 414001, Maharashtra
5/--/BAPBelapur (2)X  21:24+1221:25+141m11-1230.855541mCRShrirampur, Maharashtra
6/--/KPGKopargaon (2)X  22:14+922:15+121m11-1186.239508mCRKopargaon 423601, Maharashtra
7/--/MMRManmad Junction (6)23:20+1223:30+2410m31-1143.966580mCRManmad 423104, Maharashtra
8/==/NGNNandgaon (3)O  00:03 23:53+2400:05 23:55+242m21-1118.667476mCRNandgaon, Maharashtra
9/==/CSNChalisgaon Junction (3)X  00:33+1700:35+192m22-1076.482352mCRChalisgaon 424101, Maharashtra
10/==/PCPachora Junction (4)X  01:08+1701:10+192m22-1031.6102264mCRPachora 424201, Maharashtra
11/==/JLJalgaon Junction (4)  01:38+2701:40+272m32-983.872213mCRJalgaon 425001, Maharashtra
12/==/BSLBhusaval Junction (8)X  02:00+3302:10+3910m12-959.768208mCRBhusaval 425201, Maharashtra
13/==/BAUBurhanpur (2)X  02:58+3203:00+322m22-905.249269mCRBurhanpur, Madhya Pradesh
14/==/KNWKhandwa Junction (5)X  04:35 04:25+804:40 04:30+95m42-836.485310mCRKhandwa, Madhya Pradesh
15/==/CAERChhanera (2)  05:02+1805:04+182m22-791.087283mWCRChhanera, Madhya Pradesh
16/==/HDHarda (3)X  05:47+1905:49+192m22-728.761289mWCRHarda, Madhya Pradesh
17/==/TBNTimarni (2)X  06:03+2006:05+202m22-714.674308mWCRTimarni, Madhya Pradesh
18/==/BPFBanapura (2)  06:28+2006:30+202m12-686.450314mWCRBanapura, Madhya Pradesh
19/==/ETItarsi Junction (7)X  07:10+1307:15+185m22-652.960329mWCRItarsi 461111, Madhya Pradesh
20/==/HBDHoshangabad (2)X  07:33+2107:35+212m12-634.864308mWCRHoshangabad, Madhya Pradesh
21/==/HBJBhopal HabibGanj (5)X  08:38+3408:40+342m32-567.515496mWCRHabibGanj, Madhya Pradesh
22/==/BPLBhopal Junction (6)O  09:05+2509:10+265m22-561.287497mWCRBhopal, Madhya Pradesh
23/==/BHSVidisha (3)  09:47+3209:49+322m12-507.781433mWCRVidisha, Madhya Pradesh
24/==/BAQGanj Basoda (4)X  10:18+3310:20+332m22-468.450415mWCRVidisha, Madhya Pradesh
25/==/BINABina Junction (5)  11:15+1911:20+205m22-422.658414mWCRJn Pt - KATNI/GUNA/ BPL/JHS, Madhya Pradesh
26/==/DUADhaura (3)X  11:56+2811:58+282m--2-388.081407mNCRDhaura Tanda, Madhya Pradesh
27/==/LARLalitpur (3)  12:19+2912:21+292m32-359.786373mNCRLalitpur, Uttar Pradesh
28/==/BABBabina (3)X  13:04 13:06+3713:06 13:09+372 3m22-294.946285mNCRBabina, Uttar Pradesh
29/==/JHSJhansi Junction (7)X  13:40 13:42+3613:50 13:52+3910m52-269.476259mNCRJhansi, Uttar Pradesh
30/==/DBADabra (3)X  14:36+4914:38+492m22-214.069207mNCRDabra(District-Gwalior), Madhya Pradesh
31/==/GWLGwalior Junction (4)  15:15+5515:20+555m22-171.793214mNCRGwalior, Madhya Pradesh
32/==/MRAMorena (3)  15:45+1:0815:47+1:102m22-133.170176mNCRMorena, Madhya Pradesh
33/==/DHODholpur Junction (3)  16:10+1:1516:12+1:162m12-106.357177mNCRDholpur, Rajasthan
34/==/AGCAgra Cantt. (6)X  17:07+1:3717:12+1:405m32-53.734174mNCRAgra, Uttar Pradesh
35/==/RKMRaja Ki Mandi (4)  17:19+1:4617:21+1:462m12-49.776170mNCRAgra, Uttar Pradesh
36/==/MTJMathura Junction (10)»X  18:04 18:00+1:4718:07 18:05+1:463 5m320.071179mNCRMathura, Uttar Pradesh
37/==/FDBFaridabad (4)•X  19:41+1:3919:43+1:392m22113.232206mNRold Faridabad, Haryana
38/==/NZMDelhi Hazrat Nizamuddin (7)  20:16 20:22+1:2820:18 20:24+1:282m22134.021209mNRNew Delhi 110013, Delhi NCT
39/==/NDLSNew Delhi (16)X  20:45+1:3221:05+1:3420m62141.315215mNRNew Delhi 110002, Delhi NCT
40/==/SZMDelhi Sabzi Mandi (2)  21:21+1:4321:23+1:432m12145.563220mNRGulabi Bagh, Delhi NCT
41/==/NURNarela (2)X  21:47 21:45+1:5021:49 21:46+1:522 1m22168.768222mNRNarela, Delhi NCT
42/==/SNPSonipat (3)  22:06 22:01+1:5522:08 22:03+1:562m22185.864225mNRSonipat, Haryana
43/==/GNUGanaurX  22:24 22:18+1:4922:26 22:20+1:502m--2201.757222mNRGanaur, Haryana
44/==/SMKSamalkha (3)22:40 22:33+1:5622:41 22:35+1:581 2m--2214.051229mNRSamalkha, Haryana
45/==/PNPPanipat Junction (5)  23:02 22:55+1:5323:04 22:57+1:532m32231.042235mNRPanipat, Haryana
46/==/GRAGharaunda (2)23:21+1:5023:22+1:521m--2247.966244mNRGharaunda, Haryana
47/==/KUNKarnal (3)  23:38+1:4323:40+1:442m22265.448253mNRKarnal, Haryana
48/==/TRRTaraori (2)  23:54 23:55+1:4223:56+1:432 1m12277.563255mNRTaraori, Haryana
49/==/KKDEKurukshetra Junction (3)X  00:29 00:16+1:3700:31 00:18+1:382m13298.541260mNRKurukshetra, Haryana
50/==/UMBAmbala Cantt. Junction (7)X  01:20+1:2701:32+1:2512m33340.635278mNRAmbala 133001, Haryana
51/==/UBCAmbala City (3)X  01:45+1:2801:46+1:291m33348.182273mNRNH-1, Haryana
52/==/RPJRajpura Junction (3)XO  02:02 02:01+1:2902:03+1:301 2m13368.651272mNRNH-1., Punjab
53/==/SIRSirhind Junction (3)X  02:32+1:2402:34+1:252m13393.577271mNRSirhind, Punjab
54/==/KNNKhanna (3)X  02:48+1:2202:49+1:231m13411.454269mNRNH 1, Punjab
55/==/LDHLudhiana Junction (7)X03:35 03:37+1:3203:45 03:47+2:0010m33454.258246mNRLudhiana 141001, Punjab
56/==/PGWPhagwara Junction (3)X  04:22 04:24+2:0204:24 04:26+2:022m23489.870245mNRPhagwara, Punjab
57/==/JRCJalandhar Cantt. Junction (3)  04:40+2:0504:45+2:065m13506.155239mNRNear Rama Mandi, Punjab
58/--/TDOTanda Urmar (3)  05:26 05:31+2:0105:28 05:33+2:012m13548.461239mNRUrmar Tanda, Punjab
59/--/DZADasuya (2)  05:43 05:48+2:0005:45 05:50+2:012m23563.850251mNRDasuya distt. hoshiarpur, Punjab
60/--/MEXMukerian (3)  06:03 06:08+2:0106:05 06:10+2:012m23578.848257mNRMukerian distt. hosiharpur, Punjab
61/--/PTKCPathankot Cantt (3)  07:00+1:5407:05+1:555m23618.642328mNRPathankot By Pass Ph:0186-2251594, Punjab
62/--/KTHUKathua (2)  07:38+2:0107:40+2:022m13641.864396mNRdistt. kathua, Jammu and Kashmir
63/--/HRNRHira Nagar (2)  08:06 08:07+2:0708:08 08:09+2:082m--3670.699380mNRHiranagar, Jammu and Kashmir
64/--/SMBXSamba (2)X  08:18+2:1608:20+2:192m23685.425365mNRDist. Samba, Jammu and Kashmir
65/--/VJPJVijaypur Jammu (2)XO  08:47+2:0508:49+2:062m13696.818353mNRdistt. samba, Jammu and Kashmir
66/--/JATJammu Tawi (3)  10:00+1:08-13718.0-337mNRJammu 180002, Jammu and Kashmir
Scroll to Top
Scroll to Bottom


Go to Mobile site